createdAt,value
2022-09-05T00:01:44.003Z,22.81
2022-09-05T00:04:24.935Z,22.81
2022-09-05T00:07:10.628Z,22.80
2022-09-05T00:10:20.690Z,22.80
2022-09-05T00:12:47.654Z,22.77
2022-09-05T00:15:23.407Z,22.78
2022-09-05T00:19:06.582Z,22.78
2022-09-05T00:24:26.953Z,22.78
2022-09-05T00:24:30.062Z,22.77
2022-09-05T00:26:50.140Z,22.75
2022-09-05T00:29:33.211Z,22.75
2022-09-05T00:32:31.507Z,22.69
2022-09-05T00:35:12.015Z,22.66
2022-09-05T00:37:39.626Z,22.65
2022-09-05T00:40:18.342Z,22.64
2022-09-05T00:42:45.546Z,22.69
2022-09-05T00:45:14.480Z,22.68
2022-09-05T00:47:50.031Z,22.72
2022-09-05T00:50:22.127Z,22.71
2022-09-05T00:53:06.490Z,22.69
2022-09-05T00:55:36.957Z,22.65
2022-09-05T00:58:21.823Z,22.61
2022-09-05T01:00:58.824Z,22.65
2022-09-05T01:03:33.940Z,22.64
2022-09-05T01:06:29.562Z,22.61
2022-09-05T01:09:08.168Z,22.59
2022-09-05T01:11:38.204Z,22.59
2022-09-05T01:14:23.113Z,22.58
2022-09-05T01:16:58.665Z,22.57
2022-09-05T01:19:30.782Z,22.56
2022-09-05T01:21:59.814Z,22.56
2022-09-05T01:24:32.853Z,22.53
2022-09-05T01:27:26.695Z,22.55
2022-09-05T01:30:10.130Z,22.54
2022-09-05T01:32:51.424Z,22.60
2022-09-05T01:35:25.882Z,22.58
2022-09-05T01:38:06.294Z,22.59
2022-09-05T01:40:38.804Z,22.55
2022-09-05T01:43:10.445Z,22.58
2022-09-05T01:45:55.632Z,22.58
2022-09-05T01:48:37.238Z,22.57
2022-09-05T01:51:37.746Z,22.59
2022-09-05T01:54:33.534Z,22.55
2022-09-05T01:57:18.526Z,22.55
2022-09-05T01:59:58.230Z,22.57
2022-09-05T02:02:33.840Z,22.58
2022-09-05T02:05:47.695Z,22.56
2022-09-05T02:08:08.166Z,22.54
2022-09-05T02:10:40.036Z,22.58
2022-09-05T02:13:18.797Z,22.56
2022-09-05T02:15:59.983Z,22.57
2022-09-05T02:18:28.453Z,22.56
2022-09-05T02:20:56.977Z,22.55
2022-09-05T02:23:41.251Z,22.54
2022-09-05T02:26:11.350Z,22.56
2022-09-05T02:28:43.784Z,22.54
2022-09-05T02:31:21.520Z,22.56
2022-09-05T02:33:52.630Z,22.56
2022-09-05T02:36:36.525Z,22.55
2022-09-05T02:40:29.825Z,22.52
2022-09-05T02:45:06.486Z,22.53
2022-09-05T02:45:14.816Z,22.54
2022-09-05T02:47:40.929Z,22.55
2022-09-05T02:54:17.897Z,22.54
2022-09-05T02:57:41.150Z,22.54
2022-09-05T02:57:43.490Z,22.55
2022-09-05T02:59:35.917Z,22.54
2022-09-05T03:02:26.380Z,22.53
2022-09-05T03:05:05.478Z,22.53
2022-09-05T03:07:45.238Z,22.52
2022-09-05T03:10:47.123Z,22.52
2022-09-05T03:13:22.531Z,22.54
2022-09-05T03:16:04.701Z,22.53
2022-09-05T03:18:50.176Z,22.48
2022-09-05T03:21:35.087Z,22.49
2022-09-05T03:24:04.129Z,22.48
2022-09-05T03:26:50.129Z,22.47
2022-09-05T03:29:42.920Z,22.51
2022-09-05T03:32:27.706Z,22.49
2022-09-05T03:34:56.850Z,22.48
2022-09-05T03:37:41.941Z,22.48
2022-09-05T03:40:20.649Z,22.47
2022-09-05T03:42:48.494Z,22.44
2022-09-05T03:45:36.668Z,22.45
2022-09-05T03:48:28.377Z,22.44
2022-09-05T03:57:07.800Z,22.43
2022-09-05T03:57:10.414Z,22.42
2022-09-05T03:57:18.761Z,22.40
2022-09-05T03:59:59.741Z,22.41
2022-09-05T04:07:08.776Z,22.41
2022-09-05T04:08:13.433Z,22.41
2022-09-05T04:08:33.937Z,22.43
2022-09-05T04:11:04.497Z,22.50
2022-09-05T04:13:31.795Z,22.51
2022-09-05T04:16:06.453Z,22.54
2022-09-05T04:19:01.978Z,22.52
2022-09-05T04:21:29.350Z,22.51
2022-09-05T04:23:58.430Z,22.49
2022-09-05T04:26:28.452Z,22.50
2022-09-05T04:29:15.061Z,22.47
2022-09-05T04:32:10.754Z,22.52
2022-09-05T04:35:01.716Z,22.52
2022-09-05T04:37:48.755Z,22.54
2022-09-05T04:40:33.067Z,22.47
2022-09-05T04:43:01.154Z,22.52
2022-09-05T04:45:27.587Z,22.50
2022-09-05T04:47:54.755Z,22.51
2022-09-05T04:50:23.694Z,22.52
2022-09-05T04:52:53.433Z,22.55
2022-09-05T04:55:19.791Z,22.55
2022-09-05T04:57:46.071Z,22.56
2022-09-05T05:05:58.314Z,22.53
2022-09-05T05:06:20.299Z,22.54
2022-09-05T05:06:45.040Z,22.47
2022-09-05T05:09:08.484Z,22.60
2022-09-05T05:17:54.981Z,22.56
2022-09-05T05:18:03.223Z,22.56
2022-09-05T05:18:13.403Z,22.58
2022-09-05T05:20:42.578Z,22.58
2022-09-05T05:23:10.419Z,22.58
2022-09-05T05:25:47.938Z,22.58
2022-09-05T05:28:24.842Z,22.57
2022-09-05T05:30:51.686Z,22.58
2022-09-05T05:33:28.389Z,22.59
2022-09-05T05:35:55.966Z,22.61
2022-09-05T05:38:27.629Z,22.59
2022-09-05T05:40:55.222Z,22.58
2022-09-05T05:43:22.592Z,22.58
2022-09-05T05:45:55.506Z,22.26
2022-09-05T05:48:22.008Z,21.32
2022-09-05T05:50:51.656Z,20.91
2022-09-05T05:53:43.091Z,20.92
2022-09-05T05:56:16.506Z,20.88
2022-09-05T05:58:58.746Z,20.68
2022-09-05T06:01:37.743Z,20.64
2022-09-05T06:04:23.517Z,20.88
2022-09-05T06:06:58.978Z,21.14
2022-09-05T06:14:51.679Z,21.12
2022-09-05T06:14:57.993Z,21.09
2022-09-05T06:15:39.801Z,21.03
2022-09-05T06:18:25.212Z,21.19
2022-09-05T06:22:06.538Z,21.49
2022-09-05T06:23:52.031Z,21.58
2022-09-05T06:26:21.367Z,22.05
2022-09-05T06:28:55.582Z,22.16
2022-09-05T06:31:30.134Z,22.29
2022-09-05T06:34:08.495Z,22.01
2022-09-05T06:37:14.004Z,21.91
2022-09-05T06:40:01.750Z,21.95
2022-09-05T06:42:43.480Z,21.98
2022-09-05T06:45:27.914Z,21.99
2022-09-05T06:47:57.136Z,22.05
2022-09-05T06:50:27.898Z,21.99
2022-09-05T06:52:54.550Z,21.95
2022-09-05T06:55:39.405Z,21.92
2022-09-05T06:58:11.258Z,22.01
2022-09-05T07:00:44.692Z,22.09
2022-09-05T07:03:26.706Z,22.11
2022-09-05T07:06:20.252Z,22.10
2022-09-05T07:08:51.167Z,22.10
2022-09-05T07:11:25.675Z,22.03
2022-09-05T07:14:00.566Z,22.09
2022-09-05T07:16:37.659Z,22.13
2022-09-05T07:19:14.219Z,22.33
2022-09-05T07:21:43.141Z,22.12
2022-09-05T07:24:12.006Z,21.97
2022-09-05T07:26:54.082Z,22.09
2022-09-05T07:29:39.789Z,22.12
2022-09-05T07:32:20.150Z,22.15
2022-09-05T07:34:48.823Z,22.25
2022-09-05T07:37:22.051Z,22.08
2022-09-05T07:39:52.521Z,22.02
2022-09-05T07:42:26.112Z,22.25
2022-09-05T07:44:56.744Z,22.29
2022-09-05T07:47:30.230Z,22.18
2022-09-05T07:50:06.429Z,22.20
2022-09-05T07:56:54.488Z,22.28
2022-09-05T07:57:06.012Z,22.22
2022-09-05T07:58:19.673Z,22.32
2022-09-05T08:00:47.648Z,22.39
2022-09-05T08:03:14.186Z,22.52
2022-09-05T08:05:43.945Z,22.50
2022-09-05T08:08:11.654Z,22.62
2022-09-05T08:11:24.430Z,22.62
2022-09-05T08:13:27.752Z,22.76
2022-09-05T08:16:09.767Z,22.64
2022-09-05T08:18:46.019Z,22.70
2022-09-05T08:21:27.120Z,22.63
2022-09-05T08:24:16.126Z,22.56
2022-09-05T08:26:47.541Z,22.53
2022-09-05T08:29:26.892Z,22.75
2022-09-05T08:31:55.285Z,22.25
2022-09-05T08:34:44.947Z,22.36
2022-09-05T08:37:13.912Z,22.50
2022-09-05T08:39:47.762Z,22.49
2022-09-05T08:42:18.694Z,22.40
2022-09-05T08:46:41.708Z,22.45
2022-09-05T08:47:50.212Z,22.45
2022-09-05T08:50:27.053Z,22.42
2022-09-05T08:52:59.403Z,22.38
2022-09-05T08:55:44.583Z,22.40
2022-09-05T08:58:19.029Z,22.44
2022-09-05T09:00:54.993Z,22.42
2022-09-05T09:03:29.110Z,22.43
2022-09-05T09:06:12.945Z,22.44
2022-09-05T09:08:48.342Z,22.40
2022-09-05T09:11:22.207Z,22.34
2022-09-05T09:13:52.755Z,22.20
2022-09-05T09:16:39.405Z,22.20
2022-09-05T09:19:28.958Z,22.28
2022-09-05T09:21:55.738Z,22.35
2022-09-05T09:24:32.032Z,22.27
2022-09-05T09:27:41.756Z,22.36
2022-09-05T09:30:10.823Z,22.33
2022-09-05T09:32:46.920Z,22.34
2022-09-05T09:35:39.438Z,22.39
2022-09-05T09:38:09.425Z,22.39
2022-09-05T09:40:39.801Z,22.41
2022-09-05T09:43:27.367Z,22.43
2022-09-05T09:46:12.380Z,22.43
2022-09-05T09:48:47.988Z,22.42
2022-09-05T09:51:19.431Z,22.45
2022-09-05T09:54:04.254Z,22.46
2022-09-05T09:56:49.077Z,22.39
2022-09-05T09:59:17.977Z,22.42
2022-09-05T10:02:12.883Z,22.51
2022-09-05T10:10:38.061Z,22.65
2022-09-05T10:10:44.212Z,22.68
2022-09-05T10:11:51.513Z,22.68
2022-09-05T10:14:04.229Z,22.74
2022-09-05T10:16:44.627Z,22.62
2022-09-05T10:19:16.964Z,22.69
2022-09-05T10:21:43.299Z,22.68
2022-09-05T10:24:19.734Z,22.74
2022-09-05T10:26:57.246Z,22.62
2022-09-05T10:29:38.890Z,22.64
2022-09-05T10:35:07.860Z,22.58
2022-09-05T10:35:22.187Z,22.63
2022-09-05T10:38:00.753Z,22.67
2022-09-05T10:40:45.418Z,22.58
2022-09-05T10:43:23.155Z,22.61
2022-09-05T10:45:55.653Z,22.60
2022-09-05T10:48:29.191Z,22.57
2022-09-05T10:51:00.510Z,22.65
2022-09-05T10:53:39.277Z,22.94
2022-09-05T10:56:16.398Z,22.98
2022-09-05T11:01:19.395Z,23.19
2022-09-05T11:02:26.704Z,23.25
2022-09-05T11:04:49.934Z,23.21
2022-09-05T11:07:24.789Z,23.27
2022-09-05T11:10:14.590Z,23.23
2022-09-05T11:12:57.368Z,23.37
2022-09-05T11:15:31.847Z,23.30
2022-09-05T11:18:03.827Z,23.24
2022-09-05T11:20:34.508Z,23.40
2022-09-05T11:23:21.016Z,23.37
2022-09-05T11:25:47.785Z,23.34
2022-09-05T11:28:15.696Z,23.37
2022-09-05T11:30:43.628Z,23.42
2022-09-05T11:37:52.248Z,23.24
2022-09-05T11:39:47.153Z,23.14
2022-09-05T11:39:56.399Z,23.17
2022-09-05T11:41:47.235Z,23.16
2022-09-05T11:44:26.327Z,23.27
2022-09-05T11:47:14.293Z,23.62
2022-09-05T11:49:50.860Z,23.90
2022-09-05T11:52:32.758Z,23.98
2022-09-05T11:55:20.703Z,24.10
2022-09-05T11:58:39.885Z,24.16
2022-09-05T12:01:42.123Z,24.23
2022-09-05T12:04:08.625Z,24.25
2022-09-05T12:06:39.528Z,24.21
2022-09-05T12:09:26.781Z,24.27
2022-09-05T12:12:06.241Z,24.38
2022-09-05T12:15:04.425Z,24.39
2022-09-05T12:17:43.178Z,24.43
2022-09-05T12:20:22.336Z,24.50
2022-09-05T12:23:04.121Z,24.58
2022-09-05T12:27:42.122Z,24.35
2022-09-05T12:29:27.701Z,24.36
2022-09-05T12:32:36.477Z,24.28
2022-09-05T12:36:13.305Z,24.35
2022-09-05T12:40:25.374Z,24.31
2022-09-05T12:41:37.435Z,24.33
2022-09-05T12:44:37.892Z,24.33
2022-09-05T12:45:56.582Z,24.52
2022-09-05T12:48:26.348Z,24.44
2022-09-05T12:51:46.320Z,24.18
2022-09-05T12:54:26.250Z,24.24
2022-09-05T12:59:27.094Z,24.25
2022-09-05T13:02:56.972Z,24.42
2022-09-05T13:03:04.167Z,24.29
2022-09-05T13:05:19.987Z,24.18
2022-09-05T13:07:50.906Z,24.07
2022-09-05T13:13:17.341Z,24.00
2022-09-05T13:14:58.328Z,24.15
2022-09-05T13:16:22.876Z,24.21
2022-09-05T13:18:50.549Z,24.32
2022-09-05T13:21:23.220Z,24.28
2022-09-05T13:24:06.974Z,24.23
2022-09-05T13:26:38.335Z,24.20
2022-09-05T13:29:13.262Z,24.26
2022-09-05T13:37:55.485Z,24.23
2022-09-05T13:38:14.908Z,23.99
2022-09-05T13:38:15.037Z,24.29
2022-09-05T13:40:04.183Z,24.13
2022-09-05T13:42:31.543Z,24.30
2022-09-05T13:44:58.375Z,24.43
2022-09-05T13:47:36.316Z,24.40
2022-09-05T13:50:05.140Z,24.54
2022-09-05T13:52:35.644Z,24.57
2022-09-05T13:55:04.238Z,24.50
2022-09-05T13:57:35.557Z,24.41
2022-09-05T14:00:15.396Z,24.44
2022-09-05T14:03:40.630Z,24.51
2022-09-05T14:06:45.404Z,24.72
2022-09-05T14:09:41.862Z,24.71
2022-09-05T14:12:11.531Z,24.63
2022-09-05T14:17:53.202Z,24.67
2022-09-05T14:20:38.631Z,24.60
2022-09-05T14:23:10.169Z,24.51
2022-09-05T14:25:38.858Z,24.57
2022-09-05T14:28:06.690Z,24.72
2022-09-05T14:31:44.101Z,24.62
2022-09-05T14:37:48.610Z,24.61
2022-09-05T14:37:51.085Z,24.78
2022-09-05T14:39:16.621Z,24.84
2022-09-05T14:42:19.475Z,24.71
2022-09-05T14:45:06.206Z,24.75
2022-09-05T14:47:47.534Z,24.73
2022-09-05T14:50:29.233Z,24.71
2022-09-05T14:55:53.741Z,24.60
2022-09-05T15:02:46.048Z,24.61
2022-09-05T15:02:56.472Z,24.63
2022-09-05T15:04:34.860Z,24.71
2022-09-05T15:07:04.007Z,24.56
2022-09-05T15:12:14.425Z,24.55
2022-09-05T15:12:33.174Z,24.55
2022-09-05T15:15:18.061Z,24.37
2022-09-05T15:17:45.333Z,24.40
2022-09-05T15:20:11.763Z,24.48
2022-09-05T15:22:39.627Z,24.47
2022-09-05T15:25:16.741Z,24.38
2022-09-05T15:27:44.137Z,24.29
2022-09-05T15:30:36.017Z,24.37
2022-09-05T15:33:25.419Z,24.31
2022-09-05T15:35:52.343Z,24.33
2022-09-05T15:38:19.853Z,24.37
2022-09-05T15:40:46.250Z,24.41
2022-09-05T15:43:14.352Z,24.46
2022-09-05T15:45:40.748Z,24.43
2022-09-05T15:48:18.849Z,24.42
2022-09-05T15:50:51.123Z,24.30
2022-09-05T15:53:22.392Z,24.35
2022-09-05T15:55:49.929Z,24.32
2022-09-05T15:58:26.855Z,24.29
2022-09-05T16:00:56.373Z,24.29
2022-09-05T16:05:54.718Z,24.36
2022-09-05T16:10:38.655Z,24.09
2022-09-05T16:10:42.030Z,24.28
2022-09-05T16:12:14.359Z,24.06
2022-09-05T16:14:49.917Z,24.03
2022-09-05T16:23:21.010Z,23.93
2022-09-05T16:23:26.769Z,23.89
2022-09-05T16:23:39.599Z,23.89
2022-09-05T16:26:10.230Z,23.82
2022-09-05T16:28:38.506Z,23.86
2022-09-05T16:31:05.425Z,23.88
2022-09-05T16:33:32.204Z,23.85
2022-09-05T16:36:15.504Z,23.86
2022-09-05T16:38:49.887Z,23.95
2022-09-05T16:41:19.019Z,23.99
2022-09-05T16:43:49.302Z,24.00
2022-09-05T16:46:33.365Z,23.98
2022-09-05T16:49:02.365Z,23.96
2022-09-05T16:51:39.656Z,23.96
2022-09-05T16:54:27.881Z,23.95
2022-09-05T16:56:55.130Z,23.95
2022-09-05T16:59:21.911Z,23.94
2022-09-05T17:02:06.406Z,23.95
2022-09-05T17:05:03.562Z,23.94
2022-09-05T17:07:35.543Z,23.93
2022-09-05T17:10:12.060Z,23.92
2022-09-05T17:12:38.636Z,23.91
2022-09-05T17:15:13.703Z,23.90
2022-09-05T17:18:22.073Z,23.90
2022-09-05T17:20:29.550Z,23.88
2022-09-05T17:28:54.062Z,23.87
2022-09-05T17:29:30.088Z,23.88
2022-09-05T17:29:30.091Z,23.87
2022-09-05T17:32:00.162Z,23.86
2022-09-05T17:34:35.077Z,23.85
2022-09-05T17:37:19.979Z,23.85
2022-09-05T17:39:49.156Z,23.84
2022-09-05T17:42:26.251Z,23.82
2022-09-05T17:45:13.131Z,23.81
2022-09-05T17:47:46.173Z,23.78
2022-09-05T17:50:19.922Z,23.68
2022-09-05T17:53:24.948Z,23.54
2022-09-05T17:55:49.691Z,23.42
2022-09-05T17:58:48.810Z,23.31
2022-09-05T18:01:17.880Z,23.30
2022-09-05T18:03:45.779Z,23.37
2022-09-05T18:06:15.131Z,23.19
2022-09-05T18:08:44.851Z,23.28
2022-09-05T18:11:25.423Z,23.45
2022-09-05T18:13:55.037Z,23.20
2022-09-05T18:16:43.702Z,23.25
2022-09-05T18:22:21.789Z,23.52
2022-09-05T18:24:53.568Z,23.55
2022-09-05T18:27:43.898Z,23.60
2022-09-05T18:30:30.032Z,23.61
2022-09-05T18:33:54.360Z,23.62
2022-09-05T18:35:48.004Z,23.62
2022-09-05T18:38:31.104Z,23.61
2022-09-05T18:41:11.671Z,23.62
2022-09-05T18:43:39.333Z,23.58
2022-09-05T18:46:13.697Z,23.59
2022-09-05T18:50:08.195Z,23.61
2022-09-05T18:51:49.755Z,23.62
2022-09-05T18:54:20.396Z,23.62
2022-09-05T18:57:26.157Z,23.61
2022-09-05T18:59:35.913Z,23.62
2022-09-05T19:02:03.026Z,23.61
2022-09-05T19:04:41.483Z,23.55
2022-09-05T19:07:10.105Z,23.54
2022-09-05T19:09:37.265Z,23.57
2022-09-05T19:12:33.589Z,23.58
2022-09-05T19:14:53.441Z,23.60
2022-09-05T19:17:24.457Z,23.61
2022-09-05T19:20:30.517Z,23.60
2022-09-05T19:23:09.738Z,23.59
2022-09-05T19:25:39.054Z,23.60
2022-09-05T19:36:56.603Z,23.59
2022-09-05T19:37:05.307Z,23.59
2022-09-05T19:37:23.736Z,23.60
2022-09-05T19:37:26.298Z,23.58
2022-09-05T19:45:50.583Z,23.57
2022-09-05T19:47:34.730Z,23.58
2022-09-05T19:47:45.338Z,23.59
2022-09-05T19:48:15.833Z,23.60
2022-09-05T19:50:44.682Z,23.59
2022-09-05T19:53:12.305Z,23.58
2022-09-05T19:55:38.710Z,23.57
2022-09-05T19:58:19.379Z,23.57
2022-09-05T20:01:00.409Z,23.57
2022-09-05T20:03:27.568Z,23.58
2022-09-05T20:05:53.932Z,23.58
2022-09-05T20:08:33.132Z,23.58
2022-09-05T20:11:00.118Z,23.58
2022-09-05T20:13:26.470Z,23.57
2022-09-05T20:15:52.876Z,23.57
2022-09-05T20:18:20.472Z,23.57
2022-09-05T20:20:57.170Z,23.55
2022-09-05T20:23:24.507Z,23.56
2022-09-05T20:25:51.655Z,23.56
2022-09-05T20:28:18.773Z,23.56
2022-09-05T20:30:46.104Z,23.57
2022-09-05T20:33:23.182Z,23.58
2022-09-05T20:42:15.676Z,23.56
2022-09-05T20:43:21.510Z,23.57
2022-09-05T20:43:31.289Z,23.56
2022-09-05T20:44:17.215Z,23.56
2022-09-05T20:51:31.574Z,23.55
2022-09-05T20:54:21.725Z,23.56
2022-09-05T20:54:27.970Z,23.55
2022-09-05T20:55:38.633Z,23.55
2022-09-05T20:58:09.382Z,23.55
2022-09-05T21:00:36.025Z,23.55
2022-09-05T21:03:02.520Z,23.55
2022-09-05T21:05:30.079Z,23.54
2022-09-05T21:08:19.516Z,23.54
2022-09-05T21:10:54.362Z,23.54
2022-09-05T21:13:34.657Z,23.55
2022-09-05T21:16:01.096Z,23.54
2022-09-05T21:18:33.400Z,23.54
2022-09-05T21:21:01.522Z,23.51
2022-09-05T21:23:35.323Z,23.52
2022-09-05T21:26:05.169Z,23.53
2022-09-05T21:28:36.452Z,23.52
2022-09-05T21:31:03.951Z,23.54
2022-09-05T21:33:45.846Z,23.53
2022-09-05T21:36:12.848Z,23.54
2022-09-05T21:38:42.706Z,23.55
2022-09-05T21:41:09.058Z,23.53
2022-09-05T21:47:35.934Z,23.52
2022-09-05T21:47:40.084Z,23.52
2022-09-05T21:49:14.107Z,23.53
2022-09-05T21:51:40.466Z,23.52
2022-09-05T21:59:21.048Z,23.52
2022-09-05T21:59:32.703Z,23.52
2022-09-05T21:59:55.518Z,23.51
2022-09-05T22:02:23.719Z,23.52
2022-09-05T22:04:53.970Z,23.50
2022-09-05T22:07:31.924Z,23.51
2022-09-05T22:09:59.489Z,23.52
2022-09-05T22:12:31.445Z,23.51
2022-09-05T22:14:57.915Z,23.50
2022-09-05T22:17:44.476Z,23.50
2022-09-05T22:20:12.063Z,23.50
2022-09-05T22:22:39.015Z,23.50
2022-09-05T22:25:10.262Z,23.50
2022-09-05T22:27:36.714Z,23.50
2022-09-05T22:30:04.430Z,23.50
2022-09-05T22:32:34.057Z,23.50
2022-09-05T22:35:26.784Z,23.49
2022-09-05T22:37:49.391Z,23.50
2022-09-05T22:40:26.200Z,23.48
2022-09-05T22:42:56.228Z,23.48
2022-09-05T22:45:22.596Z,23.49
2022-09-05T22:47:48.952Z,23.48
2022-09-05T22:50:15.345Z,23.48
2022-09-05T22:52:41.719Z,23.46
2022-09-05T22:55:08.269Z,23.47
2022-09-05T22:57:34.627Z,23.48
2022-09-05T23:00:00.990Z,23.46
2022-09-05T23:02:27.558Z,23.46
2022-09-05T23:04:53.917Z,23.45
2022-09-05T23:07:20.925Z,23.44
2022-09-05T23:09:47.282Z,23.42
2022-09-05T23:12:13.675Z,23.45
2022-09-05T23:14:40.021Z,23.42
2022-09-05T23:17:06.394Z,23.41
2022-09-05T23:19:32.738Z,23.41
2022-09-05T23:21:59.092Z,23.41
2022-09-05T23:24:25.679Z,23.40
2022-09-05T23:26:52.046Z,23.42
2022-09-05T23:29:18.397Z,23.41
2022-09-05T23:31:44.765Z,23.40
2022-09-05T23:34:11.124Z,23.39
2022-09-05T23:36:37.465Z,23.38
2022-09-05T23:39:03.917Z,23.36
2022-09-05T23:41:30.307Z,23.37
2022-09-05T23:43:56.659Z,23.37
2022-09-05T23:46:23.159Z,23.36
2022-09-05T23:48:49.537Z,23.36
2022-09-05T23:51:15.897Z,23.36
2022-09-05T23:53:42.241Z,23.35
2022-09-05T23:56:09.011Z,23.35
2022-09-05T23:58:35.606Z,23.34
